Jade — 9HVS8 — position and weather

sailwx.info

Track history (hours):
 
Tides and Currents Weather Stations Pressure Air Temp Water Temp Dewpoint Dewpoint Depression Visibility Wind Speed Wind Dir Waves Ship Positions

Jade

Last reported at 2014-Dec-14 01:17 UTC. Time now 2014-Dec-21 10:45 UTC.
Position N 35°51' E 032°52'.

Length 176 m; draft 8 m.

Type: Tanker. MMSI: 256491000.

Date/timePositionNaut miles runAvg speedWind from/ knotsBaromVisibWave heightAir tempDewpointWater temp
2014-Dec-14 01:17N 35°51' E 032°52'30914.2
2014-Dec-13 03:33N 36°13' E 026°31'1514.6
2014-Dec-13 02:34N 36°17' E 026°14'1514.6
2014-Dec-13 01:33N 36°22' E 025°57'1514.6
2014-Dec-13 00:33N 36°31' E 025°43'1515.3
2014-Dec-12 23:34N 36°42' E 025°29'1514.6
2014-Dec-12 22:33N 36°50' E 025°14'1514.8
2014-Dec-12 21:33N 36°49' E 024°55'1414.1
2014-Dec-12 20:33N 36°53' E 024°38'1515.2
2014-Dec-12 19:33N 37°03' E 024°24'1514.9
2014-Dec-12 18:33N 37°15' E 024°13'1515.1
2014-Dec-12 17:33N 37°27' E 024°02'1414.5
2014-Dec-12 16:33N 37°36' E 023°48'1514.8
2014-Dec-12 15:34N 37°49' E 023°37'10 9.6
2014-Dec-12 14:34N 37°58' E 023°33'4 3.5
2014-Dec-12 13:29N 38°01' E 023°31'0 0.1
2014-Dec-12 12:29N 38°01' E 023°31'3 3.6
2014-Dec-12 11:33N 38°01' E 023°36'0 0.0
2014-Dec-12 10:12N 38°01' E 023°36'0 0.0
2014-Dec-12 08:18N 38°01' E 023°36'0 0.0
2014-Dec-12 05:24N 38°01' E 023°36'0 0.0
2014-Dec-12 03:06N 38°01' E 023°36'0 0.0
2014-Dec-12 02:30N 38°01' E 023°36'0 0.0
2014-Dec-12 00:18N 38°01' E 023°36'0 0.0
2014-Dec-10 11:26N 38°01' E 023°36'0 0.0
2014-Dec-10 10:34N 38°01' E 023°36'0 0.0
2014-Dec-10 09:33N 38°01' E 023°36'3 2.8
2014-Dec-10 08:33N 37°60' E 023°33'5 5.1
2014-Dec-10 07:34N 37°55' E 023°36'1 1.5
2014-Dec-10 06:34N 37°54' E 023°36'3 2.9
2014-Dec-10 05:34N 37°52' E 023°39'1313.5
2014-Dec-10 04:34N 37°40' E 023°46'1514.0
2014-Dec-10 03:31N 37°38' E 024°04'1414.1
2014-Dec-10 02:33N 37°45' E 024°18'1514.7
2014-Dec-10 01:33N 37°55' E 024°33'1614.7
2014-Dec-10 00:26N 38°09' E 024°42'9313.5
2014-Dec-09 17:32N 39°39' E 024°08'  
2014-Dec-04 03:12N 39°41' E 023°60'914.1
2014-Dec-04 02:32N 39°37' E 024°11'  
Track history (hours):
 
Tides and Currents Weather Stations Pressure Air Temp Water Temp Dewpoint Dewpoint Depression Visibility Wind Speed Wind Dir Waves Ship Positions

Jade

Last reported at 2014-Dec-14 01:17 UTC. Time now 2014-Dec-21 10:45 UTC.
Position N 35°51' E 032°52'.

Length 176 m; draft 8 m.

Type: Tanker. MMSI: 256491000.

Date/timePositionNaut miles runAvg speedWind from/ knotsBaromVisibWave heightAir tempDewpointWater temp
2014-Dec-14 01:17N 35°51' E 032°52'30914.2
2014-Dec-13 03:33N 36°13' E 026°31'1514.6
2014-Dec-13 02:34N 36°17' E 026°14'1514.6
2014-Dec-13 01:33N 36°22' E 025°57'1514.6
2014-Dec-13 00:33N 36°31' E 025°43'1515.3
2014-Dec-12 23:34N 36°42' E 025°29'1514.6
2014-Dec-12 22:33N 36°50' E 025°14'1514.8
2014-Dec-12 21:33N 36°49' E 024°55'1414.1
2014-Dec-12 20:33N 36°53' E 024°38'1515.2
2014-Dec-12 19:33N 37°03' E 024°24'1514.9
2014-Dec-12 18:33N 37°15' E 024°13'1515.1
2014-Dec-12 17:33N 37°27' E 024°02'1414.5
2014-Dec-12 16:33N 37°36' E 023°48'1514.8
2014-Dec-12 15:34N 37°49' E 023°37'10 9.6
2014-Dec-12 14:34N 37°58' E 023°33'4 3.5
2014-Dec-12 13:29N 38°01' E 023°31'0 0.1
2014-Dec-12 12:29N 38°01' E 023°31'3 3.6
2014-Dec-12 11:33N 38°01' E 023°36'0 0.0
2014-Dec-12 10:12N 38°01' E 023°36'0 0.0
2014-Dec-12 08:18N 38°01' E 023°36'0 0.0
2014-Dec-12 05:24N 38°01' E 023°36'0 0.0
2014-Dec-12 03:06N 38°01' E 023°36'0 0.0
2014-Dec-12 02:30N 38°01' E 023°36'0 0.0
2014-Dec-12 00:18N 38°01' E 023°36'0 0.0
2014-Dec-10 11:26N 38°01' E 023°36'0 0.0
2014-Dec-10 10:34N 38°01' E 023°36'0 0.0
2014-Dec-10 09:33N 38°01' E 023°36'3 2.8
2014-Dec-10 08:33N 37°60' E 023°33'5 5.1
2014-Dec-10 07:34N 37°55' E 023°36'1 1.5
2014-Dec-10 06:34N 37°54' E 023°36'3 2.9
2014-Dec-10 05:34N 37°52' E 023°39'1313.5
2014-Dec-10 04:34N 37°40' E 023°46'1514.0
2014-Dec-10 03:31N 37°38' E 024°04'1414.1
2014-Dec-10 02:33N 37°45' E 024°18'1514.7
2014-Dec-10 01:33N 37°55' E 024°33'1614.7
2014-Dec-10 00:26N 38°09' E 024°42'9313.5
2014-Dec-09 17:32N 39°39' E 024°08'  
2014-Dec-04 03:12N 39°41' E 023°60'914.1
2014-Dec-04 02:32N 39°37' E 024°11'  

Dump ship's entire track history